createdAt,value
2022-10-05T00:02:21.584Z,9.33
2022-10-05T00:07:25.975Z,9.51
2022-10-05T00:12:30.624Z,9.59
2022-10-05T00:17:35.741Z,9.76
2022-10-05T00:22:38.796Z,9.93
2022-10-05T00:27:42.291Z,9.90
2022-10-05T00:32:47.500Z,9.79
2022-10-05T00:37:54.677Z,9.51
2022-10-05T00:43:14.038Z,8.82
2022-10-05T00:48:26.312Z,8.70
2022-10-05T00:53:42.621Z,8.08
2022-10-05T00:58:56.857Z,7.75
2022-10-05T01:04:09.779Z,7.82
2022-10-05T01:09:19.552Z,7.78
2022-10-05T01:14:28.893Z,7.46
2022-10-05T01:19:59.371Z,7.64
2022-10-05T01:25:16.368Z,7.67
2022-10-05T01:30:23.066Z,7.24
2022-10-05T01:35:38.242Z,7.19
2022-10-05T01:40:53.691Z,7.09
2022-10-05T01:46:03.112Z,7.20
2022-10-05T01:51:17.440Z,6.98
2022-10-05T01:56:27.517Z,7.16
2022-10-05T02:01:39.945Z,7.05
2022-10-05T02:06:46.948Z,7.03
2022-10-05T02:11:56.044Z,7.02
2022-10-05T02:17:06.736Z,6.78
2022-10-05T02:22:15.994Z,6.88
2022-10-05T02:27:26.957Z,6.88
2022-10-05T02:32:37.677Z,6.96
2022-10-05T02:37:50.265Z,6.90
2022-10-05T02:43:02.163Z,6.53
2022-10-05T02:48:12.916Z,6.67
2022-10-05T02:53:26.043Z,6.67
2022-10-05T02:58:35.982Z,6.50
2022-10-05T03:03:44.755Z,6.44
2022-10-05T03:08:52.559Z,6.44
2022-10-05T03:14:05.943Z,6.33
2022-10-05T03:19:25.183Z,6.19
2022-10-05T03:24:42.135Z,6.05
2022-10-05T03:29:55.286Z,6.06
2022-10-05T03:35:07.987Z,5.97
2022-10-05T03:40:24.303Z,5.94
2022-10-05T03:45:32.378Z,5.94
2022-10-05T03:50:45.564Z,5.91
2022-10-05T03:55:55.428Z,5.86
2022-10-05T04:01:03.608Z,5.63
2022-10-05T04:06:14.634Z,5.54
2022-10-05T04:11:22.364Z,5.39
2022-10-05T04:16:29.089Z,5.61
2022-10-05T04:21:42.456Z,5.22
2022-10-05T04:26:51.722Z,5.38
2022-10-05T04:32:09.797Z,5.42
2022-10-05T04:37:21.567Z,5.49
2022-10-05T04:42:32.382Z,5.63
2022-10-05T04:48:05.165Z,5.49
2022-10-05T04:53:18.387Z,5.39
2022-10-05T04:58:38.860Z,5.18
2022-10-05T05:04:00.650Z,5.33
2022-10-05T05:09:53.745Z,4.87
2022-10-05T05:15:13.642Z,4.89
2022-10-05T05:20:23.206Z,5.17
2022-10-05T05:25:38.185Z,5.16
2022-10-05T05:30:47.644Z,5.19
2022-10-05T05:36:09.340Z,5.27
2022-10-05T05:41:19.701Z,5.29
2022-10-05T05:46:51.126Z,5.36
2022-10-05T05:51:55.709Z,5.29
2022-10-05T05:57:11.052Z,5.42
2022-10-05T06:02:21.189Z,5.54
2022-10-05T06:07:30.767Z,5.70
2022-10-05T06:12:42.764Z,5.96
2022-10-05T06:17:52.739Z,6.11
2022-10-05T06:23:00.861Z,6.02
2022-10-05T06:28:12.375Z,6.33
2022-10-05T06:33:42.802Z,6.78
2022-10-05T06:39:20.577Z,7.11
2022-10-05T06:44:31.498Z,7.27
2022-10-05T06:50:10.285Z,7.37
2022-10-05T06:55:26.787Z,7.62
2022-10-05T07:00:37.539Z,8.53
2022-10-05T07:05:56.641Z,9.04
2022-10-05T07:11:08.463Z,8.87
2022-10-05T07:16:25.692Z,9.21
2022-10-05T07:21:39.407Z,9.74
2022-10-05T07:26:48.045Z,10.63
2022-10-05T07:32:02.349Z,11.19
2022-10-05T07:37:28.898Z,11.73
2022-10-05T07:42:51.789Z,11.93
2022-10-05T07:48:06.902Z,10.79
2022-10-05T07:53:19.631Z,10.92
2022-10-05T07:58:29.493Z,12.38
2022-10-05T08:03:52.327Z,13.15
2022-10-05T08:08:59.976Z,12.57
2022-10-05T08:14:15.519Z,13.65
2022-10-05T08:19:24.548Z,13.75
2022-10-05T08:24:40.016Z,12.99
2022-10-05T08:29:51.571Z,13.56
2022-10-05T08:35:03.098Z,13.82
2022-10-05T08:40:31.043Z,14.47
2022-10-05T08:46:03.846Z,13.78
2022-10-05T08:51:32.277Z,14.74
2022-10-05T08:56:44.289Z,14.96
2022-10-05T09:02:09.498Z,14.49
2022-10-05T09:07:36.350Z,13.89
2022-10-05T09:12:55.164Z,14.75
2022-10-05T09:18:25.287Z,15.27
2022-10-05T09:23:38.996Z,15.55
2022-10-05T09:28:57.571Z,15.93
2022-10-05T09:34:26.031Z,15.69
2022-10-05T09:40:11.523Z,15.24
2022-10-05T09:45:41.867Z,15.59
2022-10-05T09:51:00.988Z,15.94
2022-10-05T09:56:49.126Z,15.51
2022-10-05T10:02:16.986Z,15.42
2022-10-05T10:07:50.287Z,15.46
2022-10-05T10:13:14.450Z,15.66
2022-10-05T10:18:41.833Z,16.28
2022-10-05T10:24:14.755Z,16.54
2022-10-05T10:29:48.573Z,16.34
2022-10-05T10:35:21.278Z,16.12
2022-10-05T10:40:37.980Z,16.80
2022-10-05T10:45:56.321Z,16.95
2022-10-05T10:51:14.820Z,16.99
2022-10-05T10:56:40.459Z,17.19
2022-10-05T11:01:53.781Z,17.21
2022-10-05T11:07:28.323Z,17.28
2022-10-05T11:12:58.060Z,17.35
2022-10-05T11:18:11.420Z,17.33
2022-10-05T11:23:39.176Z,17.87
2022-10-05T11:28:58.879Z,18.15
2022-10-05T11:34:49.341Z,18.35
2022-10-05T11:40:11.646Z,18.59
2022-10-05T11:45:21.827Z,19.27
2022-10-05T11:50:33.182Z,18.56
2022-10-05T11:55:43.220Z,18.57
2022-10-05T12:00:54.991Z,19.31
2022-10-05T12:06:19.379Z,19.90
2022-10-05T12:11:44.904Z,20.02
2022-10-05T12:16:54.424Z,19.81
2022-10-05T12:22:04.204Z,19.39
2022-10-05T12:27:16.123Z,18.97
2022-10-05T12:32:25.034Z,19.40
2022-10-05T12:37:43.044Z,19.77
2022-10-05T12:42:56.037Z,19.54
2022-10-05T12:48:29.858Z,19.77
2022-10-05T12:53:48.392Z,19.42
2022-10-05T12:58:59.234Z,19.13
2022-10-05T13:04:17.422Z,19.17
2022-10-05T13:09:29.538Z,19.30
2022-10-05T13:14:55.804Z,18.98
2022-10-05T13:20:03.765Z,18.98
2022-10-05T13:25:21.494Z,18.92
2022-10-05T13:30:26.025Z,19.22
2022-10-05T13:35:44.974Z,18.95
2022-10-05T13:40:54.633Z,19.24
2022-10-05T13:46:07.254Z,19.64
2022-10-05T13:51:17.329Z,19.48
2022-10-05T13:56:24.316Z,19.72
2022-10-05T14:01:41.704Z,20.24
2022-10-05T14:06:45.599Z,20.46
2022-10-05T14:11:50.813Z,19.96
2022-10-05T14:16:57.012Z,19.84
2022-10-05T14:22:03.205Z,19.87
2022-10-05T14:27:21.573Z,19.38
2022-10-05T14:32:27.917Z,19.24
2022-10-05T14:37:34.645Z,19.22
2022-10-05T14:42:47.338Z,19.00
2022-10-05T14:47:54.325Z,19.06
2022-10-05T14:53:17.572Z,18.62
2022-10-05T14:58:43.297Z,18.65
2022-10-05T15:04:02.365Z,18.35
2022-10-05T15:09:27.589Z,18.17
2022-10-05T15:14:32.913Z,17.75
2022-10-05T15:19:52.768Z,17.54
2022-10-05T15:25:04.377Z,17.46
2022-10-05T15:30:13.243Z,17.31
2022-10-05T15:35:38.119Z,17.40
2022-10-05T15:40:45.514Z,17.43
2022-10-05T15:45:57.641Z,17.36
2022-10-05T15:51:08.235Z,17.05
2022-10-05T15:56:22.325Z,16.75
2022-10-05T16:01:44.741Z,16.93
2022-10-05T16:07:09.912Z,16.90
2022-10-05T16:12:26.470Z,16.49
2022-10-05T16:17:48.059Z,16.20
2022-10-05T16:22:59.775Z,16.10
2022-10-05T16:28:19.673Z,15.79
2022-10-05T16:33:29.457Z,15.61
2022-10-05T16:38:44.371Z,15.30
2022-10-05T16:43:55.115Z,15.09
2022-10-05T16:49:10.826Z,14.88
2022-10-05T16:54:19.601Z,14.80
2022-10-05T16:59:54.093Z,14.60
2022-10-05T17:05:13.989Z,14.31
2022-10-05T17:10:41.105Z,14.41
2022-10-05T17:16:03.412Z,14.27
2022-10-05T17:21:15.755Z,14.11
2022-10-05T17:26:41.089Z,14.01
2022-10-05T17:32:09.113Z,14.08
2022-10-05T17:37:35.663Z,13.84
2022-10-05T17:42:58.033Z,13.56
2022-10-05T17:48:03.346Z,13.39
2022-10-05T17:53:39.213Z,13.25
2022-10-05T17:59:06.754Z,13.19
2022-10-05T18:04:38.849Z,13.05
2022-10-05T18:09:56.661Z,12.99
2022-10-05T18:15:21.924Z,12.97
2022-10-05T18:20:33.159Z,12.65
2022-10-05T18:25:45.000Z,12.46
2022-10-05T18:31:10.126Z,12.45
2022-10-05T18:36:28.294Z,12.30
2022-10-05T18:41:48.338Z,12.12
2022-10-05T18:47:00.518Z,12.13
2022-10-05T18:52:12.330Z,12.16
2022-10-05T18:57:41.697Z,12.00
2022-10-05T19:02:52.327Z,11.64
2022-10-05T19:08:03.249Z,12.05
2022-10-05T19:13:22.153Z,12.34
2022-10-05T19:18:58.158Z,13.29
2022-10-05T19:24:15.685Z,13.85
2022-10-05T19:29:33.484Z,14.14
2022-10-05T19:34:54.637Z,14.37
2022-10-05T19:40:07.299Z,14.33
2022-10-05T19:45:19.175Z,14.34
2022-10-05T19:50:28.264Z,14.19
2022-10-05T19:55:37.717Z,14.43
2022-10-05T20:00:42.398Z,14.18
2022-10-05T20:05:48.052Z,14.45
2022-10-05T20:11:12.521Z,14.42
2022-10-05T20:16:46.887Z,14.50
2022-10-05T20:21:52.848Z,14.61
2022-10-05T20:27:05.153Z,14.57
2022-10-05T20:32:10.040Z,14.56
2022-10-05T20:37:16.086Z,14.47
2022-10-05T20:42:20.495Z,14.59
2022-10-05T20:47:23.387Z,14.59
2022-10-05T20:52:27.670Z,14.58
2022-10-05T20:57:31.488Z,14.65
2022-10-05T21:02:34.429Z,14.72
2022-10-05T21:07:38.697Z,14.62
2022-10-05T21:12:42.156Z,14.60
2022-10-05T21:17:45.029Z,14.65
2022-10-05T21:22:49.643Z,14.48
2022-10-05T21:27:52.669Z,14.56
2022-10-05T21:32:55.567Z,14.81
2022-10-05T21:37:59.832Z,15.01
2022-10-05T21:43:03.316Z,15.00
2022-10-05T21:48:06.423Z,15.04
2022-10-05T21:53:14.195Z,15.16
2022-10-05T21:58:18.423Z,15.35
2022-10-05T22:03:21.616Z,15.43
2022-10-05T22:08:28.723Z,15.45
2022-10-05T22:13:42.020Z,15.37
2022-10-05T22:18:45.615Z,15.45
2022-10-05T22:23:50.185Z,15.37
2022-10-05T22:28:55.560Z,15.30
2022-10-05T22:33:58.678Z,15.33
2022-10-05T22:39:03.053Z,15.40
2022-10-05T22:44:06.823Z,15.47
2022-10-05T22:49:10.189Z,15.44
2022-10-05T22:54:14.600Z,15.52
2022-10-05T22:59:17.854Z,15.57
2022-10-05T23:04:20.861Z,15.51
2022-10-05T23:09:25.233Z,15.49
2022-10-05T23:14:29.382Z,15.37
2022-10-05T23:19:32.366Z,15.34
2022-10-05T23:24:36.716Z,15.37
2022-10-05T23:29:39.718Z,15.44
2022-10-05T23:34:42.732Z,15.53
2022-10-05T23:39:47.101Z,15.45
2022-10-05T23:44:50.108Z,15.49
2022-10-05T23:49:53.164Z,15.45
2022-10-05T23:54:57.540Z,15.36
